Wrights Shop, Virginia
Current Conditions -  °F | °C
As of 12:54 PM on Thursday 30 Oct 2014 (Local Time) from KLYH Reporting Station
Clear Clear  
Wind Chill: 59°   Ceiling: Unl
Heat Index: 59°   Visibility: 10mi
Dew Point: 36°   Wind: 6mph
Humidity: 42%   Direction: NA
Pressure: 30.06"   Gusts: NA
Location:  37.4692°N, 79.0906°W
Report Text: KLYH 301654Z VRB05KT 10SM CLR 15/02 A3006 RMK AO2 SLP179 T01500022 $
Loading
Personal Weather Stations






























Interactive Weather Map
Tropical Storm Tracking
New forecast layout! Learn more

10-Day Weather Forecast

Advertisements
Track Severe Weather on mobile